Time;durP1;ratioP1;P1;durP2;ratioP2;P2;SDS_P1;SDS_P2;PMS_P1;PMS_P2;Temp;Humidity;BMP_temperature;BMP_pressure;BME280_temperature;BME280_humidity;BME280_pressure;Samples;Min_cycle;Max_cycle;Signal;HPM_P1;HPM_P2
2023/02/02 00:00:34;;;;;;;21.93;10.77;;;;;;;0.66;100.00;100585.09;4999413;28;20033;-68
2023/02/02 00:03:00;;;;;;;15.67;10.77;;;;;;;0.74;100.00;100591.63;4999099;28;20026;-67
2023/02/02 00:05:26;;;;;;;20.57;12.83;;;;;;;0.78;100.00;100595.31;4992428;28;20484;-68
2023/02/02 00:07:51;;;;;;;21.37;12.10;;;;;;;0.60;100.00;100582.06;4992631;28;20485;-67
2023/02/02 00:10:17;;;;;;;20.50;13.07;;;;;;;0.63;100.00;100592.44;4979944;28;20484;-67
2023/02/02 00:12:42;;;;;;;19.67;13.10;;;;;;;0.53;100.00;100580.66;4992725;28;20492;-68
2023/02/02 00:15:09;;;;;;;20.47;12.37;;;;;;;-0.21;100.00;100448.81;4992334;28;20041;-67
2023/02/02 00:17:34;;;;;;;21.33;13.60;;;;;;;0.13;100.00;100514.03;4992706;28;20030;-67
2023/02/02 00:20:00;;;;;;;20.63;12.73;;;;;;;0.22;100.00;100540.16;4992395;28;20033;-67
2023/02/02 00:22:26;;;;;;;20.17;12.93;;;;;;;0.50;100.00;100589.69;4992435;28;20030;-67
2023/02/02 00:24:52;;;;;;;22.80;14.23;;;;;;;0.51;100.00;100576.22;4992297;28;20026;-68
2023/02/02 00:27:17;;;;;;;21.43;14.17;;;;;;;0.44;100.00;100568.13;4992507;28;20030;-67
2023/02/02 00:29:43;;;;;;;21.67;13.13;;;;;;;0.45;100.00;100580.06;4973751;28;20499;-67
2023/02/02 00:32:09;;;;;;;24.80;13.67;;;;;;;0.50;100.00;100595.69;4991374;28;20030;-67
2023/02/02 00:34:34;;;;;;;23.37;14.20;;;;;;;0.06;100.00;100529.53;4991777;28;20453;-67
2023/02/02 00:36:59;;;;;;;23.43;15.50;;;;;;;0.43;100.00;100594.28;4992129;28;20045;-67
2023/02/02 00:39:25;;;;;;;21.13;14.40;;;;;;;0.46;100.00;100594.56;4992167;28;20045;-67
2023/02/02 00:41:51;;;;;;;21.30;13.27;;;;;;;0.36;100.00;100591.16;4991891;28;20092;-67
2023/02/02 00:47:00;;;;;;;21.37;13.37;;;;;;;0.25;100.00;100588.66;4991753;28;20574;-68
2023/02/02 00:49:26;;;;;;;24.30;13.53;;;;;;;0.12;100.00;100561.38;4991985;28;20054;-67
2023/02/02 00:51:51;;;;;;;19.40;12.40;;;;;;;0.41;100.00;100600.03;4991875;28;20034;-67
2023/02/02 00:54:17;;;;;;;18.97;11.60;;;;;;;0.40;100.00;100583.91;4991949;28;20380;-66
2023/02/02 00:56:43;;;;;;;20.37;12.70;;;;;;;0.50;100.00;100598.22;4991962;28;20093;-67
2023/02/02 00:59:08;;;;;;;18.77;11.97;;;;;;;0.57;100.00;100589.41;4991389;28;20034;-67
2023/02/02 01:01:34;;;;;;;17.23;10.33;;;;;;;0.57;100.00;100581.81;4991425;28;20045;-67
2023/02/02 01:04:00;;;;;;;17.10;11.07;;;;;;;0.68;100.00;100585.19;4991471;28;20100;-67
2023/02/02 01:06:26;;;;;;;16.47;10.67;;;;;;;0.75;100.00;100592.53;4991573;28;20030;-67
2023/02/02 01:08:52;;;;;;;15.93;9.53;;;;;;;0.73;100.00;100588.97;4991231;28;20026;-67
2023/02/02 01:11:17;;;;;;;13.68;8.77;;;;;;;0.80;100.00;100579.41;4991322;28;20128;-66
2023/02/02 01:13:43;;;;;;;15.23;8.80;;;;;;;0.84;100.00;100582.19;4991486;28;20085;-68
2023/02/02 01:16:09;;;;;;;19.13;8.97;;;;;;;0.77;100.00;100586.81;4991286;28;20041;-67
2023/02/02 01:18:35;;;;;;;15.80;9.97;;;;;;;0.75;100.00;100593.41;4991215;28;20026;-67
2023/02/02 01:21:09;;;;;;;13.03;8.50;;;;;;;0.48;100.00;100542.19;4991305;28;20026;-67
2023/02/02 01:23:36;;;;;;;13.93;8.10;;;;;;;0.64;100.00;100586.59;4991567;28;20026;-67
2023/02/02 01:26:04;;;;;;;14.50;9.73;;;;;;;0.59;100.00;100590.44;4991113;28;20081;-67
2023/02/02 01:28:30;;;;;;;14.30;9.57;;;;;;;0.52;100.00;100575.47;4991159;28;20089;-67
2023/02/02 01:31:17;;;;;;;13.93;8.40;;;;;;;0.63;100.00;100578.06;4969236;28;20324;-67
2023/02/02 01:33:44;;;;;;;16.17;8.80;;;;;;;0.39;100.00;100533.88;4969414;28;20045;-67
2023/02/02 01:36:13;;;;;;;16.73;9.40;;;;;;;0.76;100.00;100584.13;4969148;28;20046;-67
2023/02/02 01:38:39;;;;;;;12.85;9.10;;;;;;;0.82;100.00;100586.25;4969484;28;20082;-67
2023/02/02 01:41:05;;;;;;;12.57;8.40;;;;;;;0.83;100.00;100582.97;4968991;28;20413;-68
2023/02/02 01:43:43;;;;;;;13.27;8.35;;;;;;;0.93;100.00;100586.31;4968819;28;20038;-68
2023/02/02 01:46:16;;;;;;;17.25;9.00;;;;;;;0.86;100.00;100593.34;4956637;28;20046;-68
2023/02/02 01:48:48;;;;;;;14.80;8.45;;;;;;;0.86;100.00;100585.72;4968686;28;20038;-68
2023/02/02 01:51:20;;;;;;;14.30;7.93;;;;;;;0.93;100.00;100590.53;4969499;28;20058;-67
2023/02/02 01:53:47;;;;;;;12.77;7.22;;;;;;;0.93;100.00;100593.94;4968690;28;20084;-67
2023/02/02 01:56:23;;;;;;;11.47;7.67;;;;;;;0.87;100.00;100590.91;4969107;28;20303;-67
2023/02/02 01:58:49;;;;;;;11.13;7.57;;;;;;;0.95;100.00;100586.44;4968893;28;20475;-66
2023/02/02 02:01:15;;;;;;;12.05;7.43;;;;;;;0.78;100.00;100563.13;4970541;28;20126;-66
2023/02/02 02:03:41;;;;;;;12.87;7.20;;;;;;;0.93;100.00;100586.31;4991373;28;20436;-67
2023/02/02 02:06:15;;;;;;;11.65;7.53;;;;;;;1.02;100.00;100575.97;4990769;28;20392;-68
2023/02/02 02:08:59;;;;;;;13.02;8.82;;;;;;;1.19;100.00;100591.66;4983501;28;20124;-66
2023/02/02 02:11:25;;;;;;;15.88;8.27;;;;;;;0.98;100.00;100540.03;5010916;28;20117;-66
2023/02/02 02:16:59;;;;;;;13.02;8.43;;;;;;;1.21;100.00;100585.00;5010957;28;20479;-66
2023/02/02 02:19:30;;;;;;;14.82;9.50;;;;;;;1.20;100.00;100593.44;5010563;28;20531;-66
2023/02/02 02:28:34;;;;;;;11.43;8.13;;;;;;;0.94;100.00;100572.84;5010449;28;20084;-66
2023/02/02 02:31:39;;;;;;;14.43;8.73;;;;;;;1.02;100.00;100567.47;5010998;28;20034;-67
2023/02/02 02:34:21;;;;;;;13.93;9.00;;;;;;;1.13;100.00;100574.25;5010633;28;20117;-66
2023/02/02 02:36:53;;;;;;;14.32;8.63;;;;;;;1.21;100.00;100572.28;5010565;28;20030;-66
2023/02/02 02:39:33;;;;;;;18.33;9.70;;;;;;;1.29;100.00;100563.59;5010844;28;20034;-66
2023/02/02 02:42:06;;;;;;;14.75;8.80;;;;;;;1.36;100.00;100573.47;5010551;28;20130;-66
2023/02/02 02:44:33;;;;;;;12.32;8.35;;;;;;;1.35;100.00;100589.50;5010740;28;20038;-66
2023/02/02 02:46:59;;;;;;;11.55;6.78;;;;;;;1.38;100.00;100576.97;5010627;28;20128;-66
2023/02/02 02:49:25;;;;;;;13.45;7.07;;;;;;;1.38;100.00;100569.34;5010831;28;20050;-66
2023/02/02 02:51:52;;;;;;;10.15;5.72;;;;;;;1.24;100.00;100572.53;5010606;28;20022;-66
2023/02/02 02:54:27;;;;;;;9.02;5.47;;;;;;;1.08;100.00;100571.34;5010706;28;20091;-66
2023/02/02 02:57:18;;;;;;;9.30;5.88;;;;;;;1.09;100.00;100564.63;5012728;28;20068;-66
2023/02/02 03:00:08;;;;;;;8.95;5.05;;;;;;;1.28;100.00;100583.06;5013973;28;20026;-66
2023/02/02 03:02:40;;;;;;;8.55;5.22;;;;;;;1.04;100.00;100540.50;5014005;28;20478;-66
2023/02/02 03:05:53;;;;;;;7.72;4.85;;;;;;;1.38;100.00;100614.28;4998091;28;20362;-66
2023/02/02 03:08:29;;;;;;;11.27;6.60;;;;;;;1.33;100.00;100616.44;4914848;29;20148;-66
2023/02/02 03:10:56;;;;;;;10.32;6.53;;;;;;;1.29;100.00;100615.31;4914717;29;20122;-66
2023/02/02 03:13:23;;;;;;;12.45;6.90;;;;;;;1.30;100.00;100623.88;4914766;29;20028;-66
2023/02/02 03:15:48;;;;;;;12.82;8.10;;;;;;;1.16;100.00;100611.75;4914696;29;20063;-66
2023/02/02 03:18:19;;;;;;;10.80;6.70;;;;;;;1.13;100.00;100615.84;4914678;29;20383;-66
2023/02/02 03:20:45;;;;;;;10.73;5.93;;;;;;;1.11;100.00;100608.88;4884127;29;20040;-66
2023/02/02 03:23:12;;;;;;;9.57;6.00;;;;;;;1.15;100.00;100599.78;4914394;29;20040;-66
2023/02/02 03:25:38;;;;;;;8.98;5.43;;;;;;;1.12;100.00;100592.81;4912026;29;20107;-66
2023/02/02 03:28:04;;;;;;;9.48;5.60;;;;;;;1.15;100.00;100587.06;4914519;29;20122;-66
2023/02/02 03:30:30;;;;;;;10.27;5.97;;;;;;;1.10;100.00;100591.84;4914442;29;20040;-66
2023/02/02 03:32:56;;;;;;;9.18;5.43;;;;;;;0.94;100.00;100572.84;4914599;29;20079;-66
2023/02/02 03:35:21;;;;;;;8.32;5.13;;;;;;;1.01;100.00;100584.38;4914718;29;20119;-66
2023/02/02 03:37:48;;;;;;;8.25;5.20;;;;;;;0.92;100.00;100582.03;4914186;29;20032;-66
2023/02/02 03:40:14;;;;;;;8.70;5.50;;;;;;;0.95;100.00;100574.63;4926417;29;20423;-66
2023/02/02 03:42:39;;;;;;;10.65;5.93;;;;;;;1.07;100.00;100583.94;4953491;28;20045;-66
2023/02/02 03:45:05;;;;;;;8.82;5.28;;;;;;;1.10;100.00;100584.19;4956774;28;20132;-66
2023/02/02 03:47:31;;;;;;;10.90;5.53;;;;;;;1.04;100.00;100586.28;4974228;28;20469;-66
2023/02/02 03:49:57;;;;;;;11.23;5.18;;;;;;;0.76;100.00;100539.28;4974114;28;20527;-66
2023/02/02 03:52:23;;;;;;;9.35;5.13;;;;;;;0.97;100.00;100592.53;4974043;28;20038;-66
2023/02/02 03:54:50;;;;;;;10.68;5.43;;;;;;;0.94;100.00;100594.84;4973787;28;20111;-66
2023/02/02 03:57:16;;;;;;;8.30;4.50;;;;;;;0.67;100.00;100547.84;4973675;28;20117;-66
2023/02/02 03:59:41;;;;;;;7.40;4.07;;;;;;;0.67;100.00;100550.38;4974161;28;20031;-66
2023/02/02 04:02:06;;;;;;;8.63;4.80;;;;;;;0.90;100.00;100578.47;4991733;28;20132;-66
2023/02/02 04:04:32;;;;;;;9.27;5.33;;;;;;;0.98;100.00;100563.78;4992984;28;20026;-66
2023/02/02 04:06:58;;;;;;;8.63;4.13;;;;;;;1.07;100.00;100571.25;4992621;28;20034;-66
2023/02/02 04:09:24;;;;;;;7.78;4.28;;;;;;;1.15;100.00;100579.44;4993458;28;20069;-66
2023/02/02 04:11:50;;;;;;;5.82;3.78;;;;;;;1.08;100.00;100558.63;4993405;28;20030;-66
2023/02/02 04:14:16;;;;;;;9.55;4.35;;;;;;;1.20;100.00;100573.94;4992459;28;20041;-66
2023/02/02 04:16:41;;;;;;;7.15;4.35;;;;;;;1.28;100.00;100566.91;4993195;28;20045;-66
2023/02/02 04:19:07;;;;;;;8.50;4.65;;;;;;;1.38;100.00;100579.53;4993018;28;20030;-66
2023/02/02 04:21:34;;;;;;;8.55;4.82;;;;;;;1.36;100.00;100573.47;4992579;28;20076;-66
2023/02/02 04:23:59;;;;;;;8.38;4.05;;;;;;;1.35;100.00;100566.59;4974441;28;20045;-66
2023/02/02 04:26:25;;;;;;;7.15;4.10;;;;;;;1.43;100.00;100573.16;4992692;28;20026;-66
2023/02/02 04:28:52;;;;;;;7.07;4.18;;;;;;;1.42;100.00;100580.66;4992724;28;20032;-66
2023/02/02 04:31:17;;;;;;;8.40;4.70;;;;;;;1.52;100.00;100585.69;4992905;28;20431;-67
2023/02/02 04:33:43;;;;;;;7.03;3.80;;;;;;;1.39;100.00;100578.75;4992927;28;20092;-66
2023/02/02 04:36:09;;;;;;;10.25;4.85;;;;;;;1.30;100.00;100590.81;4991638;28;20027;-66
2023/02/02 04:38:35;;;;;;;9.25;4.05;;;;;;;1.20;100.00;100580.72;4992578;28;20026;-66
2023/02/02 04:41:06;;;;;;;8.25;4.35;;;;;;;0.83;100.00;100527.03;4992707;28;20045;-66
2023/02/02 04:43:33;;;;;;;7.85;4.70;;;;;;;0.94;100.00;100585.53;4992335;28;20038;-66
2023/02/02 04:46:00;;;;;;;9.88;4.25;;;;;;;0.70;100.00;100588.72;4992602;28;20030;-66
2023/02/02 04:48:26;;;;;;;7.60;4.40;;;;;;;0.56;100.00;100587.63;4992618;28;20045;-66
2023/02/02 04:50:58;;;;;;;9.03;4.67;;;;;;;0.28;100.00;100565.16;5009789;28;20045;-66
2023/02/02 04:53:23;;;;;;;10.40;4.53;;;;;;;0.38;100.00;100589.63;5012002;28;20102;-66
2023/02/02 04:55:49;;;;;;;12.93;5.53;;;;;;;0.26;100.00;100595.50;5011812;28;20538;-66
2023/02/02 04:58:14;;;;;;;8.40;4.27;;;;;;;0.07;100.00;100603.28;5002433;28;20038;-66
2023/02/02 05:00:39;;;;;;;13.53;5.17;;;;;;;-0.09;100.00;100596.06;4992401;28;20034;-66
2023/02/02 05:03:05;;;;;;;7.93;4.37;;;;;;;-0.46;100.00;100554.13;5008916;28;20457;-66
2023/02/02 05:05:31;;;;;;;9.03;4.50;;;;;;;-0.25;100.00;100601.56;4994152;28;20101;-66
2023/02/02 05:07:56;;;;;;;7.83;4.37;;;;;;;-0.27;100.00;100605.59;5011804;28;20052;-66
2023/02/02 05:10:21;;;;;;;6.80;4.20;;;;;;;-0.27;100.00;100584.44;5011678;28;20141;-66
2023/02/02 05:12:47;;;;;;;9.07;4.17;;;;;;;-0.18;100.00;100582.63;5011561;28;20117;-66
2023/02/02 05:15:12;;;;;;;7.77;3.97;;;;;;;0.06;100.00;100600.63;4991318;28;20058;-66
2023/02/02 05:17:38;;;;;;;9.23;3.90;;;;;;;0.09;100.00;100606.84;5007267;28;20057;-66
2023/02/02 05:20:05;;;;;;;6.73;3.87;;;;;;;0.24;100.00;100598.69;4991847;28;20361;-66
2023/02/02 05:22:30;;;;;;;7.13;3.80;;;;;;;0.11;100.00;100557.09;4991961;28;20027;-66
2023/02/02 05:24:55;;;;;;;6.33;3.70;;;;;;;0.43;100.00;100588.34;4991741;28;20169;-66
2023/02/02 05:27:21;;;;;;;6.27;3.30;;;;;;;0.45;100.00;100579.19;4973291;28;20133;-66
2023/02/02 05:29:47;;;;;;;8.50;4.00;;;;;;;0.48;100.00;100585.38;4991790;28;20030;-66
2023/02/02 05:32:12;;;;;;;9.30;4.03;;;;;;;0.45;100.00;100572.44;4991918;28;20089;-66
2023/02/02 05:34:38;;;;;;;8.23;4.13;;;;;;;0.56;100.00;100591.09;4991262;28;20037;-66
2023/02/02 05:37:03;;;;;;;7.90;3.90;;;;;;;0.36;100.00;100560.69;4969582;28;20137;-66
2023/02/02 05:39:28;;;;;;;6.70;4.43;;;;;;;0.60;100.00;100594.75;4953426;28;20042;-66
2023/02/02 05:41:54;;;;;;;11.83;5.27;;;;;;;0.84;100.00;100598.31;4969789;28;20054;-66
2023/02/02 05:44:19;;;;;;;9.73;5.03;;;;;;;1.02;100.00;100596.31;4969617;28;20039;-66
2023/02/02 05:46:45;;;;;;;8.40;4.60;;;;;;;1.14;100.00;100593.81;4969571;28;20050;-65
2023/02/02 05:49:12;;;;;;;9.20;4.87;;;;;;;1.26;100.00;100598.97;4953527;28;20799;-66
2023/02/02 05:51:48;;;;;;;8.97;4.10;;;;;;;0.91;100.00;100533.59;4969543;28;20409;-66
2023/02/02 05:54:18;;;;;;;8.38;4.65;;;;;;;1.37;100.00;100609.94;4969438;28;20038;-66
2023/02/02 05:56:44;;;;;;;8.13;4.50;;;;;;;1.37;100.00;100600.69;4969330;28;20042;-66
2023/02/02 05:59:09;;;;;;;7.77;4.00;;;;;;;1.43;100.00;100602.78;4966724;28;20535;-66
2023/02/02 06:01:38;;;;;;;7.43;4.10;;;;;;;1.33;100.00;100606.28;4969265;28;20053;-66
2023/02/02 06:04:03;;;;;;;8.75;4.10;;;;;;;1.51;100.00;100605.91;4969419;28;20035;-66
2023/02/02 06:06:28;;;;;;;12.17;4.93;;;;;;;1.55;100.00;100605.38;4969264;28;20038;-66
2023/02/02 06:08:54;;;;;;;15.07;5.75;;;;;;;1.55;100.00;100607.94;4987797;28;20405;-67
2023/02/02 06:11:22;;;;;;;14.80;6.75;;;;;;;1.58;100.00;100611.59;4990945;28;20528;-67
2023/02/02 06:13:48;;;;;;;10.75;5.07;;;;;;;1.60;100.00;100619.31;4991385;28;20499;-67
2023/02/02 06:16:14;;;;;;;8.07;4.35;;;;;;;1.62;100.00;100607.63;4989419;28;20062;-67
2023/02/02 06:18:39;;;;;;;10.25;4.68;;;;;;;1.80;100.00;100617.41;4990934;28;20045;-65
2023/02/02 06:21:05;;;;;;;9.10;3.90;;;;;;;1.90;100.00;100615.63;4990610;28;20493;-67
2023/02/02 06:23:32;;;;;;;7.57;3.85;;;;;;;1.68;100.00;100561.38;4991250;28;20038;-66
2023/02/02 06:25:58;;;;;;;7.65;3.58;;;;;;;2.09;100.00;100615.34;4991172;28;20030;-67
2023/02/02 06:28:24;;;;;;;6.75;4.00;;;;;;;2.24;100.00;100610.47;4982881;28;20112;-67
2023/02/02 06:30:49;;;;;;;6.07;3.35;;;;;;;2.35;100.00;100608.69;4974167;28;20121;-66
2023/02/02 06:33:15;;;;;;;7.00;3.38;;;;;;;2.46;100.00;100623.88;4994939;28;20169;-67
2023/02/02 06:35:40;;;;;;;8.23;4.15;;;;;;;2.58;100.00;100629.84;4994801;28;20468;-66
2023/02/02 06:38:06;;;;;;;8.45;3.63;;;;;;;2.74;100.00;100631.81;4994945;28;20034;-67
2023/02/02 06:40:32;;;;;;;9.80;3.95;;;;;;;2.87;100.00;100634.44;4960216;28;20057;-67
2023/02/02 06:43:00;;;;;;;7.75;3.53;;;;;;;3.02;100.00;100626.13;4995177;28;20034;-66
2023/02/02 06:45:27;;;;;;;10.38;3.58;;;;;;;3.13;100.00;100621.72;4994860;28;20054;-66
2023/02/02 06:47:53;;;;;;;7.15;3.45;;;;;;;3.03;100.00;100567.53;4994993;28;20396;-66
2023/02/02 06:50:18;;;;;;;8.40;3.22;;;;;;;3.41;100.00;100621.97;4977029;28;20050;-66
2023/02/02 06:52:50;;;;;;;8.75;3.70;;;;;;;3.42;100.00;100602.47;4994322;28;20033;-66
2023/02/02 06:55:17;;;;;;;4.82;2.15;;;;;;;3.61;100.00;100623.31;4979849;28;20062;-66
2023/02/02 06:57:42;;;;;;;5.95;2.85;;;;;;;3.49;99.70;100582.56;4974640;28;20038;-66
2023/02/02 07:00:09;;;;;;;5.40;2.90;;;;;;;3.78;99.76;100627.00;4974880;28;20039;-66
2023/02/02 07:02:34;;;;;;;8.23;3.10;;;;;;;3.89;99.63;100625.19;4974581;28;20567;-66
2023/02/02 07:05:00;;;;;;;8.70;3.38;;;;;;;3.94;99.10;100616.16;4974897;28;20027;-66
2023/02/02 07:07:25;;;;;;;6.68;3.00;;;;;;;3.85;99.40;100592.53;4974872;28;20477;-66
2023/02/02 07:09:51;;;;;;;6.85;3.88;;;;;;;4.13;99.25;100627.56;4974897;28;20023;-66
2023/02/02 07:12:18;;;;;;;7.53;3.10;;;;;;;4.05;99.56;100601.53;4974540;28;20038;-66
2023/02/02 07:14:43;;;;;;;5.03;2.38;;;;;;;4.23;98.73;100614.59;4974282;28;20492;-66
2023/02/02 07:17:10;;;;;;;6.15;2.80;;;;;;;4.31;98.47;100622.75;4974580;28;20038;-66
2023/02/02 07:19:35;;;;;;;6.88;2.75;;;;;;;4.38;98.75;100630.91;4974467;28;20490;-66
2023/02/02 07:22:00;;;;;;;7.82;3.03;;;;;;;4.48;98.58;100622.16;4974219;28;20023;-66
2023/02/02 07:24:26;;;;;;;7.88;3.50;;;;;;;4.58;98.56;100617.66;4983261;28;20042;-66
2023/02/02 07:26:52;;;;;;;6.25;2.67;;;;;;;4.61;97.63;100618.72;4993997;28;20034;-66
2023/02/02 07:29:17;;;;;;;7.15;3.58;;;;;;;4.65;98.01;100617.25;4993735;28;20034;-66
2023/02/02 07:31:43;;;;;;;6.10;2.80;;;;;;;4.69;97.14;100617.53;4993629;28;20030;-66
2023/02/02 07:34:08;;;;;;;5.47;2.50;;;;;;;4.76;96.90;100613.69;4952240;29;20413;-66
2023/02/02 07:36:34;;;;;;;6.82;2.83;;;;;;;4.91;96.84;100625.66;4952396;29;20039;-66
2023/02/02 07:39:02;;;;;;;6.63;2.58;;;;;;;4.85;96.23;100624.50;4952529;29;20046;-66
2023/02/02 07:41:28;;;;;;;7.60;3.30;;;;;;;4.95;96.37;100620.84;4951939;28;20094;-66
2023/02/02 07:43:54;;;;;;;6.13;3.10;;;;;;;4.97;96.54;100598.78;4936302;29;20142;-66
2023/02/02 07:46:19;;;;;;;11.50;8.15;;;;;;;4.94;96.73;100585.81;4952437;29;20039;-66
2023/02/02 07:48:45;;;;;;;10.65;8.23;;;;;;;5.23;97.01;100626.75;4944172;29;20166;-66
2023/02/02 07:51:14;;;;;;;9.77;3.45;;;;;;;5.31;95.67;100631.56;4952043;29;20083;-66
2023/02/02 07:53:43;;;;;;;5.25;3.28;;;;;;;5.37;95.69;100631.06;4947612;29;20519;-65
2023/02/02 07:56:14;;;;;;;7.70;3.60;;;;;;;5.52;95.46;100625.97;4932921;29;20072;-66
2023/02/02 07:58:39;;;;;;;8.65;3.22;;;;;;;4.93;94.87;100514.06;4951947;28;20301;-66
2023/02/02 08:01:07;;;;;;;5.53;2.67;;;;;;;5.66;93.85;100619.97;4952210;29;20413;-66
2023/02/02 08:03:34;;;;;;;4.35;2.28;;;;;;;5.73;94.13;100622.91;4952219;29;20541;-66
2023/02/02 08:06:00;;;;;;;4.35;2.38;;;;;;;5.55;93.05;100576.59;4987301;28;20477;-65
2023/02/02 08:08:26;;;;;;;8.65;3.15;;;;;;;5.89;93.05;100629.81;4993198;28;20384;-66
2023/02/02 08:10:52;;;;;;;5.15;3.20;;;;;;;5.76;93.77;100600.03;4992717;28;20034;-66
2023/02/02 08:13:19;;;;;;;7.00;2.72;;;;;;;6.03;92.05;100635.75;4992985;28;20122;-66
2023/02/02 08:15:45;;;;;;;6.03;3.15;;;;;;;6.09;93.28;100637.03;4993018;28;20042;-66
2023/02/02 08:18:10;;;;;;;4.38;2.38;;;;;;;6.04;92.62;100602.53;4992983;28;20034;-66
2023/02/02 08:20:36;;;;;;;4.00;2.30;;;;;;;6.31;91.37;100645.94;4993061;28;20043;-66
2023/02/02 08:23:01;;;;;;;6.00;3.17;;;;;;;6.45;92.69;100654.41;4992633;28;20474;-66
2023/02/02 08:25:27;;;;;;;7.97;3.17;;;;;;;6.54;92.21;100652.38;4992993;28;20034;-66
2023/02/02 08:27:54;;;;;;;5.32;2.97;;;;;;;6.63;90.35;100649.44;4992538;28;20068;-66
2023/02/02 08:30:19;;;;;;;6.10;3.15;;;;;;;6.73;91.34;100643.09;4992733;28;20127;-66
2023/02/02 08:32:45;;;;;;;7.50;3.75;;;;;;;6.62;90.63;100622.88;4993056;28;20571;-66
2023/02/02 08:35:10;;;;;;;3.35;2.08;;;;;;;6.75;89.32;100647.53;4992367;28;20113;-65
2023/02/02 08:37:37;;;;;;;5.53;2.72;;;;;;;7.00;90.37;100648.00;4992624;28;20525;-66
2023/02/02 08:40:03;;;;;;;5.10;2.60;;;;;;;6.81;88.98;100621.31;4992146;28;20093;-66
2023/02/02 08:42:28;;;;;;;4.22;2.47;;;;;;;7.02;89.12;100656.66;4992580;28;20026;-66
2023/02/02 08:44:53;;;;;;;6.75;2.35;;;;;;;7.08;88.57;100657.00;4992529;28;20541;-66
2023/02/02 08:47:19;;;;;;;8.45;3.10;;;;;;;7.16;87.53;100662.53;4992554;28;20037;-66
2023/02/02 08:49:44;;;;;;;5.00;2.55;;;;;;;7.09;86.92;100662.22;4992271;28;20605;-66
2023/02/02 08:52:10;;;;;;;5.65;2.67;;;;;;;7.23;87.41;100639.84;4992433;28;20030;-66
2023/02/02 08:54:36;;;;;;;10.20;4.63;;;;;;;7.29;87.25;100642.72;4991343;28;20058;-66
2023/02/02 08:57:02;;;;;;;9.90;3.85;;;;;;;7.38;87.45;100636.31;4992143;28;20060;-66
2023/02/02 08:59:27;;;;;;;6.97;3.05;;;;;;;7.44;84.96;100640.09;4991950;28;20467;-66
2023/02/02 09:01:53;;;;;;;6.57;2.75;;;;;;;7.32;84.69;100610.31;4991954;28;20030;-66
2023/02/02 09:04:18;;;;;;;3.47;1.88;;;;;;;7.56;84.69;100642.41;4991741;28;20030;-66
2023/02/02 09:06:45;;;;;;;5.07;2.45;;;;;;;7.67;85.50;100621.53;4992244;28;20034;-66
2023/02/02 09:09:14;;;;;;;5.25;2.30;;;;;;;7.84;83.30;100636.13;4991864;28;20052;-66
2023/02/02 09:11:40;;;;;;;4.50;1.85;;;;;;;7.94;81.52;100629.75;4992075;28;20428;-66
2023/02/02 09:14:07;;;;;;;2.97;1.60;;;;;;;7.94;80.92;100634.91;4991632;28;20113;-66
2023/02/02 09:16:33;;;;;;;4.18;2.42;;;;;;;8.15;80.01;100627.38;4991555;28;20431;-66
2023/02/02 09:18:59;;;;;;;7.60;2.80;;;;;;;8.24;80.51;100619.22;4991607;28;20080;-66
2023/02/02 09:21:25;;;;;;;4.00;1.77;;;;;;;8.35;78.34;100627.44;4991846;28;20034;-66
2023/02/02 09:23:52;;;;;;;6.32;2.45;;;;;;;8.31;77.32;100607.53;4991391;28;20034;-66
2023/02/02 09:26:19;;;;;;;6.43;2.70;;;;;;;8.38;78.61;100577.00;4991507;28;20023;-66
2023/02/02 09:28:49;;;;;;;3.45;1.77;;;;;;;8.54;78.53;100612.09;4991680;28;20061;-66
2023/02/02 09:31:14;;;;;;;3.50;1.83;;;;;;;8.04;78.72;100525.69;4991475;28;20485;-66
2023/02/02 09:33:41;;;;;;;4.78;1.70;;;;;;;8.48;76.34;100575.78;4988872;28;20117;-66
2023/02/02 09:36:10;;;;;;;5.90;2.70;;;;;;;8.74;76.37;100622.47;4991508;28;20058;-66
2023/02/02 09:38:36;;;;;;;4.63;1.50;;;;;;;8.65;76.15;100609.16;4991529;28;20109;-66
2023/02/02 09:41:18;;;;;;;3.78;2.00;;;;;;;8.80;76.88;100617.59;4974171;28;20269;-66
2023/02/02 09:44:01;;;;;;;5.88;2.38;;;;;;;8.98;76.01;100606.38;4991421;28;20041;-66
2023/02/02 09:46:40;;;;;;;4.80;1.80;;;;;;;8.83;75.09;100549.94;4991720;28;20169;-66
2023/02/02 09:49:14;;;;;;;2.53;1.30;;;;;;;9.04;73.20;100596.38;4991236;28;20047;-66
2023/02/02 09:51:45;;;;;;;3.53;1.92;;;;;;;8.98;72.91;100555.75;4956881;28;20062;-66
2023/02/02 09:54:22;;;;;;;5.55;2.63;;;;;;;9.03;74.03;100564.59;4991284;28;20035;-66
2023/02/02 09:56:55;;;;;;;5.30;2.10;;;;;;;9.37;74.68;100584.09;4991566;28;20025;-66
2023/02/02 09:59:36;;;;;;;5.72;1.88;;;;;;;9.04;73.04;100542.28;4991384;28;20063;-66
2023/02/02 10:02:17;;;;;;;4.93;2.30;;;;;;;9.49;75.96;100564.84;4991041;28;20031;-66
2023/02/02 10:04:47;;;;;;;5.35;2.75;;;;;;;9.60;73.75;100562.72;4991614;28;20448;-66
2023/02/02 10:07:20;;;;;;;3.00;1.85;;;;;;;9.54;70.74;100556.50;4995624;28;20165;-66
2023/02/02 10:10:01;;;;;;;3.20;1.83;;;;;;;9.36;69.34;100501.59;4995673;28;20092;-66
2023/02/02 10:12:45;;;;;;;3.75;2.13;;;;;;;9.66;68.15;100532.03;4995280;28;20417;-66
2023/02/02 10:15:31;;;;;;;3.72;1.98;;;;;;;9.43;69.24;100484.69;4995474;28;20030;-66
2023/02/02 10:18:05;;;;;;;3.13;1.50;;;;;;;9.82;65.67;100539.59;4995215;28;20349;-66
2023/02/02 10:20:30;;;;;;;2.47;1.58;;;;;;;9.82;64.50;100529.28;4994781;28;20093;-66
2023/02/02 10:23:04;;;;;;;4.15;2.08;;;;;;;9.92;66.63;100515.06;4995029;28;20034;-66
2023/02/02 10:25:32;;;;;;;2.58;1.55;;;;;;;9.93;65.49;100508.19;4994977;28;20492;-66
2023/02/02 10:28:05;;;;;;;3.25;1.90;;;;;;;10.12;67.53;100502.94;4995223;28;20433;-66
2023/02/02 10:30:45;;;;;;;3.42;1.60;;;;;;;10.23;65.01;100517.97;4994925;28;20038;-66
2023/02/02 10:33:33;;;;;;;3.35;1.77;;;;;;;10.07;63.84;100504.47;4994926;28;20479;-67
2023/02/02 10:36:21;;;;;;;4.80;1.88;;;;;;;10.13;62.53;100490.91;4994526;28;20484;-66
2023/02/02 10:39:02;;;;;;;10.85;3.53;;;;;;;10.03;60.43;100505.16;4994879;28;20027;-66
2023/02/02 10:41:40;;;;;;;6.85;2.92;;;;;;;9.92;58.88;100496.09;4994778;28;20023;-66
2023/02/02 10:44:34;;;;;;;4.30;2.28;;;;;;;9.89;56.03;100504.59;4994577;28;20037;-66
2023/02/02 10:47:05;;;;;;;5.55;3.25;;;;;;;9.90;55.71;100502.94;4915014;29;20502;-66
2023/02/02 10:49:37;;;;;;;7.25;3.67;;;;;;;9.93;54.32;100497.88;4914581;29;20131;-67
2023/02/02 10:52:15;;;;;;;3.95;2.58;;;;;;;10.00;54.72;100507.63;4914971;29;20541;-67
2023/02/02 10:54:56;;;;;;;17.13;11.57;;;;;;;10.11;54.17;100484.84;4914775;29;20032;-67
2023/02/02 10:57:50;;;;;;;4.40;1.92;;;;;;;10.07;55.75;100488.09;4914910;29;20526;-67
2023/02/02 11:00:18;;;;;;;3.90;1.70;;;;;;;10.23;56.59;100471.53;4858757;29;20041;-67
2023/02/02 11:02:46;;;;;;;3.88;2.38;;;;;;;10.19;55.90;100457.63;4858814;29;20058;-67
2023/02/02 11:08:27;;;;;;;4.00;1.42;;;;;;;10.25;52.58;100472.47;4858735;29;20056;-67
2023/02/02 11:10:56;;;;;;;4.70;2.30;;;;;;;10.45;54.43;100466.38;4858597;29;20198;-67
2023/02/02 11:13:36;;;;;;;4.90;3.00;;;;;;;10.40;52.90;100461.88;4858598;29;20034;-67
2023/02/02 11:16:14;;;;;;;2.35;1.02;;;;;;;10.19;51.49;100471.41;4857932;29;20048;-67
2023/02/02 11:18:40;;;;;;;2.90;1.50;;;;;;;10.45;51.93;100460.34;4858112;29;20117;-67
2023/02/02 11:21:18;;;;;;;2.60;1.50;;;;;;;10.22;49.82;100416.47;4858538;29;20041;-67
2023/02/02 11:24:01;;;;;;;4.22;1.80;;;;;;;10.56;49.43;100448.72;4874128;29;20063;-67
2023/02/02 11:26:50;;;;;;;6.82;4.78;;;;;;;10.81;50.16;100440.13;4895475;29;20040;-67
2023/02/02 11:29:32;;;;;;;2.47;1.70;;;;;;;10.65;48.08;100438.75;4895436;29;20138;-67
2023/02/02 11:32:16;;;;;;;3.60;1.75;;;;;;;10.78;49.31;100440.03;4895339;29;20127;-67
2023/02/02 11:34:41;;;;;;;6.50;3.67;;;;;;;10.65;48.40;100423.25;4895266;29;20463;-67
2023/02/02 11:37:19;;;;;;;8.68;4.85;;;;;;;10.54;49.40;100397.84;4938720;28;20066;-67
2023/02/02 11:39:44;;;;;;;7.90;5.43;;;;;;;10.77;48.95;100419.34;4993583;28;20046;-67
2023/02/02 11:42:19;;;;;;;3.22;1.92;;;;;;;10.94;48.17;100422.50;4986850;28;20077;-68
2023/02/02 11:44:54;;;;;;;1.90;1.20;;;;;;;10.57;47.42;100398.84;4974399;28;20031;-68
2023/02/02 11:47:32;;;;;;;3.33;2.33;;;;;;;10.64;47.78;100400.84;4994817;28;20105;-68